메인 페이지
METAR-TAF:

METAR-TAF

공항 :

보가르 공항

Sørvágur, 페로 제도, 덴마크

위도: 62-04N, 경도: 007-17W, 고도: 85m

현재 날씨관측

예보는 34분 전, 15:50시(UTC)에 발표되었습니다.
서남서7kt
온도 10°C
습도 93%
기압 1010 hPa
시정: 6000m
약한비

METAR: EKVG 201550Z AUTO 24007KT 6000 -RA OVC002/// 10/09 Q1010 RMK OVC006/// WIND SKEID 26020G30KT

시각: 18:24 (16:24 UTC)

예보

예보는 2 시간 23분 전, 14:01시(UTC)에 발표되었습니다.
예보 대상 시간: 20일 15시부터 20일 21시까지 (UTC)
남서16kt
시정 10km 이상
고도 1000ft 상공 구름 보통
고도 1500ft 상공 구름 많음
이슬비
일시적
20일 15시부터 20일 18시까지 (UTC)
시정: 1200m
고도 300ft 상공 흐림
이슬비, 비, 박무
일시적
20일 18시부터 20일 21시까지 (UTC)
시정: 4000m
고도 700ft 상공 흐림
이슬비, 비, 박무
전환 중
20일 19시부터 20일 21시까지 (UTC)
14kt

TAF: EKVG 201401Z 2015/2021 23016KT 9999 DZ SCT010 BKN015 TEMPO 2015/2018 1200 DZRA BR OVC003 TEMPO 2018/2021 4000 DZRA BR OVC007 BECMG 2019/2021 17014KT

4,000개 이상의 공항 관측 자료 및 예보 (METAR 및 TAF 보고).

지도상에서 검색 가능한 기상관측소가 노란 점과 빨간 점으로 표시되어 있습니다.

기상관측소 명을 보려면 표시 위로 마우스를 이동하세요.

날씨 관측과 예보를 보려면 클릭하세요.

지도 변경 : 확대하려면 엑스 표시가 있는 녹색 버튼, 축소하려면 빼기 표시가 있는 녹색 버튼, 다음 페이지의 지도를 보려면 녹색 화살표를 클릭하세요.


METAR-TAF: